Time;durP1;ratioP1;P1;durP2;ratioP2;P2;SDS_P1;SDS_P2;PMS_P1;PMS_P2;Temp;Humidity;BMP_temperature;BMP_pressure;BME280_temperature;BME280_humidity;BME280_pressure;Samples;Min_cycle;Max_cycle;Signal;HPM_P1;HPM_P2
2022/10/14 00:01:08;;;;;;;17.90;16.00;;;12.60;99.90;;;;;;5039703;28;20499;-70
2022/10/14 00:03:37;;;;;;;18.50;16.57;;;12.60;99.90;;;;;;5040157;28;20437;-69
2022/10/14 00:06:08;;;;;;;18.30;15.87;;;12.60;99.90;;;;;;5040073;28;20467;-70
2022/10/14 00:08:36;;;;;;;18.73;16.73;;;12.60;99.90;;;;;;5040026;28;20533;-69
2022/10/14 00:11:08;;;;;;;19.10;17.10;;;12.60;99.90;;;;;;5039272;28;20486;-69
2022/10/14 00:13:35;;;;;;;17.67;15.70;;;12.60;99.90;;;;;;5039445;28;20520;-68
2022/10/14 00:16:03;;;;;;;18.03;15.83;;;12.60;99.90;;;;;;5039353;28;20533;-68
2022/10/14 00:18:37;;;;;;;16.70;15.00;;;12.60;99.90;;;;;;5039607;28;20447;-68
2022/10/14 00:21:04;;;;;;;16.37;14.70;;;12.60;99.90;;;;;;5038717;28;20564;-68
2022/10/14 00:23:33;;;;;;;18.47;15.33;;;12.60;99.90;;;;;;5039323;28;20751;-68
2022/10/14 00:26:00;;;;;;;16.13;13.53;;;12.60;99.90;;;;;;5038275;28;20441;-68
2022/10/14 00:28:27;;;;;;;18.97;15.33;;;12.60;99.90;;;;;;5039031;28;20832;-67
2022/10/14 00:30:55;;;;;;;18.17;16.17;;;12.60;99.90;;;;;;5039312;28;20434;-70
2022/10/14 00:33:23;;;;;;;17.53;15.70;;;12.60;99.90;;;;;;5039037;28;20441;-70
2022/10/14 00:36:01;;;;;;;17.50;15.60;;;12.60;99.90;;;;;;5039036;28;20554;-71
2022/10/14 00:38:29;;;;;;;18.53;16.60;;;12.60;99.90;;;;;;5039082;28;20438;-70
2022/10/14 00:40:58;;;;;;;17.17;15.30;;;12.60;99.90;;;;;;5039177;28;20492;-69
2022/10/14 00:43:27;;;;;;;17.47;15.67;;;12.60;99.90;;;;;;5037549;28;20463;-70
2022/10/14 00:45:55;;;;;;;16.87;15.20;;;12.60;99.90;;;;;;5038644;28;20438;-71
2022/10/14 00:48:28;;;;;;;17.97;16.17;;;12.60;99.90;;;;;;5038511;28;20527;-71
2022/10/14 00:50:57;;;;;;;17.03;15.23;;;12.50;99.90;;;;;;5038715;28;20465;-71
2022/10/14 00:53:24;;;;;;;16.93;14.37;;;12.60;99.90;;;;;;5038364;28;20438;-69
2022/10/14 00:55:53;;;;;;;15.97;14.33;;;12.50;99.90;;;;;;5038862;28;20462;-69
2022/10/14 00:58:25;;;;;;;17.77;14.70;;;12.60;99.90;;;;;;5038944;28;20537;-68
2022/10/14 01:00:53;;;;;;;14.60;13.10;;;12.60;99.90;;;;;;5038525;28;20469;-68
2022/10/14 01:03:22;;;;;;;15.00;13.17;;;12.60;99.90;;;;;;5038583;28;20459;-70
2022/10/14 01:05:54;;;;;;;14.77;11.90;;;12.50;99.90;;;;;;5038054;28;20441;-68
2022/10/14 01:08:28;;;;;;;12.97;11.67;;;12.50;99.90;;;;;;5038264;28;20441;-71
2022/10/14 01:11:03;;;;;;;12.77;11.47;;;12.50;99.90;;;;;;5038002;28;20455;-71
2022/10/14 01:13:35;;;;;;;13.27;11.87;;;12.60;99.90;;;;;;5037428;28;20498;-70
2022/10/14 01:16:11;;;;;;;13.37;11.97;;;12.50;99.90;;;;;;5038356;28;20500;-69
2022/10/14 01:18:58;;;;;;;11.73;10.43;;;12.50;99.90;;;;;;5037474;28;20473;-68
2022/10/14 01:21:31;;;;;;;12.47;11.17;;;12.50;99.90;;;;;;5037716;28;20589;-68
2022/10/14 01:24:23;;;;;;;14.23;12.67;;;12.50;99.90;;;;;;5038081;28;20438;-67
2022/10/14 01:27:05;;;;;;;13.60;12.27;;;12.50;99.90;;;;;;5038210;28;20486;-67
2022/10/14 01:30:06;;;;;;;13.03;11.73;;;12.50;99.90;;;;;;5037834;28;20467;-67
2022/10/14 01:32:43;;;;;;;13.50;12.10;;;12.50;99.90;;;;;;5038202;28;20476;-67
2022/10/14 01:35:15;;;;;;;16.00;14.30;;;12.50;99.90;;;;;;5037522;28;20441;-67
2022/10/14 01:37:49;;;;;;;15.93;13.30;;;12.50;99.90;;;;;;5037492;28;20442;-67
2022/10/14 01:40:23;;;;;;;16.60;15.00;;;12.60;99.90;;;;;;5037675;28;20581;-67
2022/10/14 01:42:55;;;;;;;16.17;14.50;;;12.50;99.90;;;;;;5038301;28;20494;-68
2022/10/14 01:45:25;;;;;;;18.27;16.47;;;12.50;99.90;;;;;;5037256;28;20464;-67
2022/10/14 01:47:54;;;;;;;17.10;15.10;;;12.50;99.90;;;;;;5037422;28;20449;-67
2022/10/14 01:50:25;;;;;;;17.80;16.00;;;12.50;99.90;;;;;;5037282;28;20460;-67
2022/10/14 01:53:00;;;;;;;17.27;15.40;;;12.50;99.90;;;;;;5037664;28;20477;-67
2022/10/14 01:55:30;;;;;;;17.63;15.50;;;12.50;99.90;;;;;;5036732;28;20445;-66
2022/10/14 01:57:59;;;;;;;16.17;14.50;;;12.50;99.90;;;;;;5037444;28;20438;-66
2022/10/14 02:00:27;;;;;;;20.40;17.60;;;12.50;99.90;;;;;;5037773;28;20462;-67
2022/10/14 02:02:55;;;;;;;18.20;15.53;;;12.40;99.90;;;;;;5037646;28;20463;-66
2022/10/14 02:05:27;;;;;;;17.17;15.40;;;12.40;99.90;;;;;;5037318;28;20502;-66
2022/10/14 02:08:04;;;;;;;18.07;15.90;;;12.40;99.90;;;;;;5037613;28;20744;-67
2022/10/14 02:10:55;;;;;;;17.80;15.90;;;12.40;99.90;;;;;;5037897;28;20498;-66
2022/10/14 02:13:37;;;;;;;16.23;13.90;;;12.50;99.90;;;;;;5037082;28;20438;-66
2022/10/14 02:16:14;;;;;;;15.27;13.50;;;12.40;99.90;;;;;;5037310;28;20851;-67
2022/10/14 02:18:52;;;;;;;16.83;14.17;;;12.40;99.90;;;;;;5037390;28;20776;-66
2022/10/14 02:21:27;;;;;;;13.93;11.80;;;12.40;99.90;;;;;;5037346;28;20469;-66
2022/10/14 02:23:59;;;;;;;15.30;13.70;;;12.40;99.90;;;;;;5037283;28;20443;-66
2022/10/14 02:26:28;;;;;;;14.83;13.33;;;12.40;99.90;;;;;;5037439;28;20474;-67
2022/10/14 02:28:56;;;;;;;15.40;13.80;;;12.50;99.90;;;;;;5037403;28;20884;-67
2022/10/14 02:31:29;;;;;;;15.97;13.30;;;12.50;99.90;;;;;;5037263;28;20463;-67
2022/10/14 02:34:00;;;;;;;14.03;12.60;;;12.50;99.90;;;;;;5037464;28;20471;-68
2022/10/14 02:36:29;;;;;;;15.10;12.80;;;12.50;99.90;;;;;;5036636;28;20728;-66
2022/10/14 02:39:00;;;;;;;14.50;13.00;;;12.40;99.90;;;;;;5037113;28;20448;-68
2022/10/14 02:41:31;;;;;;;13.30;11.90;;;12.50;99.90;;;;;;5036968;28;20906;-70
2022/10/14 02:43:58;;;;;;;11.70;10.50;;;12.50;99.90;;;;;;5036775;28;20470;-71
2022/10/14 02:46:29;;;;;;;13.57;12.23;;;12.50;99.90;;;;;;5036776;28;20569;-69
2022/10/14 02:48:56;;;;;;;13.00;11.60;;;12.50;99.90;;;;;;5049185;28;20470;-68
2022/10/14 02:51:23;;;;;;;13.30;11.33;;;12.50;99.90;;;;;;5056753;28;20433;-67
2022/10/14 02:53:50;;;;;;;13.70;12.40;;;12.50;99.90;;;;;;5056943;28;20825;-67
2022/10/14 02:56:20;;;;;;;13.47;12.10;;;12.50;99.90;;;;;;5057165;28;20424;-67
2022/10/14 02:58:49;;;;;;;14.37;12.93;;;12.50;99.90;;;;;;5056926;28;20462;-67
2022/10/14 03:01:16;;;;;;;12.40;11.20;;;12.50;99.90;;;;;;5056581;28;20921;-67
2022/10/14 03:03:45;;;;;;;11.73;10.57;;;12.50;99.90;;;;;;5056831;28;20462;-67
2022/10/14 03:06:12;;;;;;;14.97;11.47;;;12.50;99.90;;;;;;5056455;28;20461;-67
2022/10/14 03:08:42;;;;;;;13.00;11.80;;;12.50;99.90;;;;;;5060089;28;20436;-67
2022/10/14 03:11:09;;;;;;;12.90;11.60;;;12.50;99.90;;;;;;5060874;28;20749;-67
2022/10/14 03:13:37;;;;;;;12.13;10.90;;;12.50;99.90;;;;;;5060281;28;20826;-67
2022/10/14 03:16:06;;;;;;;12.97;11.67;;;12.50;99.90;;;;;;5060930;28;20441;-67
2022/10/14 03:18:33;;;;;;;11.90;10.47;;;12.50;99.90;;;;;;5060609;28;20772;-67
2022/10/14 03:21:02;;;;;;;17.10;13.50;;;12.50;99.90;;;;;;5060205;28;20770;-67
2022/10/14 03:23:29;;;;;;;13.33;11.67;;;12.50;99.90;;;;;;5060308;28;20858;-67
2022/10/14 03:25:56;;;;;;;11.60;10.50;;;12.50;99.90;;;;;;5060111;28;20436;-67
2022/10/14 03:28:23;;;;;;;11.27;10.17;;;12.50;99.90;;;;;;5060161;28;20535;-67
2022/10/14 03:30:50;;;;;;;11.33;10.13;;;12.50;99.90;;;;;;5060239;28;20479;-66
2022/10/14 03:33:17;;;;;;;11.43;10.23;;;12.50;99.90;;;;;;5059903;28;20468;-66
2022/10/14 03:35:45;;;;;;;11.47;10.33;;;12.50;99.90;;;;;;5060169;28;20914;-67
2022/10/14 03:38:13;;;;;;;11.73;10.30;;;12.50;99.90;;;;;;5060261;28;20440;-67
2022/10/14 03:40:43;;;;;;;14.80;10.57;;;12.50;99.90;;;;;;5059135;28;20767;-67
2022/10/14 03:43:14;;;;;;;12.07;10.87;;;12.50;99.90;;;;;;5059898;28;20437;-66
2022/10/14 03:45:45;;;;;;;12.97;10.20;;;12.50;99.90;;;;;;5059975;28;20470;-66
2022/10/14 03:48:12;;;;;;;12.10;10.57;;;12.50;99.90;;;;;;5059648;28;20565;-67
2022/10/14 03:50:39;;;;;;;10.30;9.30;;;12.50;99.90;;;;;;5059877;28;20437;-66
2022/10/14 03:53:10;;;;;;;12.67;11.27;;;12.50;99.90;;;;;;5059439;28;20466;-66
2022/10/14 03:55:38;;;;;;;11.20;10.10;;;12.50;99.90;;;;;;5059675;28;20466;-66
2022/10/14 03:58:06;;;;;;;10.70;9.70;;;12.50;99.90;;;;;;5060002;28;20473;-66
2022/10/14 04:00:34;;;;;;;15.80;9.07;;;12.50;99.90;;;;;;5059843;28;20794;-67
2022/10/14 04:03:02;;;;;;;10.30;9.40;;;12.50;99.90;;;;;;5059504;28;20481;-66
2022/10/14 04:05:32;;;;;;;11.33;10.17;;;12.50;99.90;;;;;;5059855;28;20466;-67
2022/10/14 04:08:00;;;;;;;9.27;8.33;;;12.50;99.90;;;;;;5059854;28;20888;-67
2022/10/14 04:10:28;;;;;;;9.17;8.27;;;12.50;99.90;;;;;;5059994;28;20745;-66
2022/10/14 04:12:57;;;;;;;8.80;8.00;;;12.60;99.90;;;;;;5059730;28;20487;-67
2022/10/14 04:15:24;;;;;;;9.07;8.17;;;12.60;99.90;;;;;;5059212;28;20490;-66
2022/10/14 04:17:51;;;;;;;8.47;7.67;;;12.50;99.90;;;;;;5058741;28;20463;-67
2022/10/14 04:20:19;;;;;;;9.53;8.63;;;12.50;99.90;;;;;;5058727;28;20568;-67
2022/10/14 04:22:46;;;;;;;8.50;7.70;;;12.50;99.90;;;;;;5059310;28;20498;-67
2022/10/14 04:25:19;;;;;;;8.57;7.80;;;12.50;99.90;;;;;;5058885;28;20445;-67
2022/10/14 04:27:46;;;;;;;9.47;8.57;;;12.60;99.90;;;;;;5059347;28;20466;-66
2022/10/14 04:30:18;;;;;;;10.03;8.70;;;12.50;99.90;;;;;;5059553;28;20884;-67
2022/10/14 04:32:46;;;;;;;9.90;9.00;;;12.60;99.90;;;;;;5059119;28;20466;-66
2022/10/14 04:35:13;;;;;;;9.23;8.33;;;12.50;99.90;;;;;;5058780;28;20444;-67
2022/10/14 04:37:43;;;;;;;11.33;9.03;;;12.60;99.90;;;;;;5058271;28;20444;-67
2022/10/14 04:40:11;;;;;;;9.70;8.70;;;12.50;99.90;;;;;;5058630;28;20462;-67
2022/10/14 04:42:38;;;;;;;9.67;8.77;;;12.60;99.90;;;;;;5058674;28;20468;-68
2022/10/14 04:45:06;;;;;;;9.60;8.70;;;12.60;99.90;;;;;;5058206;28;20472;-68
2022/10/14 04:47:34;;;;;;;9.50;8.53;;;12.60;99.90;;;;;;5058715;28;20447;-69
2022/10/14 04:50:02;;;;;;;9.30;8.37;;;12.60;99.90;;;;;;5058423;28;20469;-69
2022/10/14 04:52:30;;;;;;;8.73;7.93;;;12.60;99.90;;;;;;5054955;28;20456;-69
2022/10/14 04:54:57;;;;;;;8.57;7.77;;;12.50;99.90;;;;;;5038206;28;21053;-68
2022/10/14 04:57:25;;;;;;;8.43;7.60;;;12.60;99.90;;;;;;5037876;28;20463;-69
2022/10/14 04:59:52;;;;;;;8.70;7.90;;;12.60;99.90;;;;;;5036843;28;20472;-68
2022/10/14 05:02:19;;;;;;;8.30;7.50;;;12.60;99.90;;;;;;5036507;28;20585;-68
2022/10/14 05:04:48;;;;;;;8.37;7.63;;;12.60;99.90;;;;;;5036935;28;20449;-68
2022/10/14 05:07:15;;;;;;;9.33;7.73;;;12.60;99.90;;;;;;5036696;28;20441;-68
2022/10/14 05:09:42;;;;;;;7.57;6.87;;;12.60;99.90;;;;;;5037376;28;20518;-68
2022/10/14 05:12:09;;;;;;;7.20;6.50;;;12.60;99.90;;;;;;5037334;28;20450;-67
2022/10/14 05:14:39;;;;;;;7.97;7.27;;;12.60;99.90;;;;;;5047983;28;20789;-68
2022/10/14 05:17:06;;;;;;;7.90;6.93;;;12.60;99.90;;;;;;5055657;28;21822;-67
2022/10/14 05:19:34;;;;;;;7.87;7.17;;;12.60;99.90;;;;;;5055433;28;20478;-70
2022/10/14 05:22:02;;;;;;;10.13;7.83;;;12.60;99.90;;;;;;5055996;28;20608;-70
2022/10/14 05:24:32;;;;;;;8.67;7.93;;;12.60;99.90;;;;;;5052603;28;20480;-70
2022/10/14 05:27:09;;;;;;;9.07;8.10;;;12.60;99.90;;;;;;5057325;28;20512;-67
2022/10/14 05:29:36;;;;;;;8.53;7.77;;;12.70;99.90;;;;;;5056787;28;20465;-67
2022/10/14 05:32:04;;;;;;;10.30;8.47;;;12.70;99.90;;;;;;5057499;28;20788;-71
2022/10/14 05:34:31;;;;;;;9.07;8.17;;;12.60;99.90;;;;;;5058076;28;20742;-72
2022/10/14 05:36:58;;;;;;;8.60;7.80;;;12.60;99.90;;;;;;5058975;28;20448;-70
2022/10/14 05:39:27;;;;;;;8.20;7.40;;;12.70;99.90;;;;;;5051694;28;20470;-67
2022/10/14 05:41:54;;;;;;;9.03;8.23;;;12.70;99.90;;;;;;5057386;28;20494;-67
2022/10/14 05:44:21;;;;;;;8.47;7.63;;;12.70;99.90;;;;;;5057621;28;20741;-67
2022/10/14 05:46:49;;;;;;;9.80;8.23;;;12.70;99.90;;;;;;5056946;28;20437;-67
2022/10/14 05:49:17;;;;;;;8.00;7.30;;;12.70;99.90;;;;;;5057115;28;20444;-65
2022/10/14 05:51:44;;;;;;;8.47;7.63;;;12.70;99.90;;;;;;5057299;28;20733;-66
2022/10/14 05:54:12;;;;;;;8.80;7.97;;;12.70;99.90;;;;;;5057635;28;20480;-66
2022/10/14 05:56:48;;;;;;;8.00;7.20;;;12.70;99.90;;;;;;5057536;28;20730;-65
2022/10/14 05:59:17;;;;;;;9.27;7.40;;;12.70;99.90;;;;;;5057000;28;20461;-67
2022/10/14 06:01:44;;;;;;;7.93;7.23;;;12.70;99.90;;;;;;5056019;28;20846;-65
2022/10/14 06:04:20;;;;;;;8.20;7.20;;;12.70;99.90;;;;;;5056386;28;20433;-65
2022/10/14 06:06:51;;;;;;;8.67;7.87;;;12.80;99.90;;;;;;5056002;28;20441;-66
2022/10/14 06:09:18;;;;;;;8.03;7.13;;;12.80;99.90;;;;;;5056636;28;20458;-66
2022/10/14 06:11:52;;;;;;;7.83;7.13;;;12.80;99.90;;;;;;5056750;28;20434;-66
2022/10/14 06:14:19;;;;;;;8.97;7.90;;;12.80;99.90;;;;;;5056121;28;20464;-66
2022/10/14 06:16:49;;;;;;;8.73;7.60;;;12.80;99.90;;;;;;5056469;28;20498;-66
2022/10/14 06:19:17;;;;;;;7.70;6.97;;;12.90;99.90;;;;;;5055729;28;20552;-66
2022/10/14 06:21:44;;;;;;;7.00;6.40;;;12.90;99.90;;;;;;5056543;28;20494;-66
2022/10/14 06:24:11;;;;;;;7.50;6.60;;;12.90;99.90;;;;;;5056724;28;20827;-66
2022/10/14 06:26:39;;;;;;;7.70;7.00;;;12.90;99.90;;;;;;5055936;28;20433;-66
2022/10/14 06:29:08;;;;;;;7.70;6.90;;;13.00;99.90;;;;;;5055630;28;20466;-66
2022/10/14 06:31:35;;;;;;;6.40;5.90;;;13.00;99.90;;;;;;5056574;28;20903;-66
2022/10/14 06:34:05;;;;;;;7.03;6.40;;;13.10;99.90;;;;;;5056723;28;20876;-65
2022/10/14 06:36:32;;;;;;;8.13;7.00;;;13.10;99.90;;;;;;5056680;28;20441;-65
2022/10/14 06:38:59;;;;;;;6.53;5.93;;;13.10;99.90;;;;;;5056263;28;20753;-65
2022/10/14 06:41:26;;;;;;;9.70;7.63;;;13.10;99.90;;;;;;5057255;28;20444;-65
2022/10/14 06:43:54;;;;;;;7.07;6.40;;;13.10;99.90;;;;;;5059019;28;20441;-65
2022/10/14 06:46:24;;;;;;;7.07;6.37;;;13.00;99.90;;;;;;5040291;28;20461;-64
2022/10/14 06:48:55;;;;;;;7.20;6.50;;;13.00;99.90;;;;;;5039545;28;20493;-65
2022/10/14 06:51:22;;;;;;;10.37;7.00;;;13.00;99.90;;;;;;5038386;28;20769;-65
2022/10/14 06:53:49;;;;;;;9.13;7.43;;;13.10;99.90;;;;;;5038308;28;20467;-65
2022/10/14 06:56:16;;;;;;;7.30;6.67;;;13.10;99.90;;;;;;5037935;28;20455;-65
2022/10/14 06:58:45;;;;;;;7.80;7.10;;;13.10;99.90;;;;;;5038632;28;20460;-65
2022/10/14 07:01:15;;;;;;;7.50;6.80;;;13.20;99.90;;;;;;5039363;28;20464;-64
2022/10/14 07:03:43;;;;;;;7.90;7.17;;;13.30;99.90;;;;;;5039469;28;20467;-65
2022/10/14 07:06:11;;;;;;;8.07;7.37;;;13.30;99.90;;;;;;5042282;28;20448;-65
2022/10/14 07:08:39;;;;;;;7.70;6.90;;;13.40;99.90;;;;;;5079436;28;20916;-64
2022/10/14 07:11:08;;;;;;;8.23;7.37;;;13.40;99.90;;;;;;5077898;28;20435;-65
2022/10/14 07:13:36;;;;;;;8.30;7.50;;;13.60;99.90;;;;;;5078376;28;20465;-65
2022/10/14 07:16:04;;;;;;;7.27;6.57;;;13.60;99.90;;;;;;5078978;28;20477;-65
2022/10/14 07:18:32;;;;;;;8.27;7.40;;;13.70;99.90;;;;;;5079684;28;20449;-65
2022/10/14 07:21:03;;;;;;;7.80;7.00;;;13.70;99.90;;;;;;5079240;28;20811;-65
2022/10/14 07:23:30;;;;;;;8.40;7.50;;;13.60;99.90;;;;;;5079144;28;20493;-65
2022/10/14 07:26:01;;;;;;;7.30;6.50;;;13.60;99.90;;;;;;5079876;28;20471;-64
2022/10/14 07:28:29;;;;;;;7.10;6.40;;;13.70;99.90;;;;;;5080330;28;20793;-65
2022/10/14 07:31:00;;;;;;;7.40;6.70;;;13.70;99.90;;;;;;5055140;28;20476;-62
2022/10/14 07:33:27;;;;;;;8.67;6.47;;;13.70;99.90;;;;;;5040172;28;20454;-65
2022/10/14 07:35:55;;;;;;;7.70;6.53;;;13.50;99.90;;;;;;5039786;28;20947;-64
2022/10/14 07:38:26;;;;;;;7.00;6.07;;;13.40;99.90;;;;;;5047139;28;20946;-65
2022/10/14 07:40:59;;;;;;;8.67;7.60;;;13.40;99.90;;;;;;5059374;28;20437;-64
2022/10/14 07:43:30;;;;;;;8.17;6.20;;;13.40;99.90;;;;;;5059701;28;20494;-64
2022/10/14 07:46:01;;;;;;;6.87;6.27;;;13.50;99.90;;;;;;5060145;28;20472;-66
2022/10/14 07:48:30;;;;;;;7.70;4.83;;;13.50;99.90;;;;;;5060127;28;20466;-65
2022/10/14 07:51:01;;;;;;;6.30;5.70;;;13.50;99.90;;;;;;5059872;28;20466;-64
2022/10/14 07:53:32;;;;;;;6.30;5.70;;;13.60;99.90;;;;;;5058925;28;20479;-66
2022/10/14 07:56:00;;;;;;;5.53;5.03;;;13.70;99.90;;;;;;5060296;28;20468;-65
2022/10/14 07:58:29;;;;;;;5.43;4.80;;;13.60;99.90;;;;;;5060220;28;20437;-65
2022/10/14 08:00:58;;;;;;;6.20;5.40;;;13.80;99.90;;;;;;5059742;28;20469;-65
2022/10/14 08:03:26;;;;;;;5.00;4.50;;;13.80;99.90;;;;;;5058773;28;20493;-66
2022/10/14 08:06:02;;;;;;;4.60;4.20;;;13.80;99.90;;;;;;5058525;28;20769;-65
2022/10/14 08:08:31;;;;;;;5.87;4.50;;;13.80;99.90;;;;;;5058716;28;20759;-65
2022/10/14 08:11:02;;;;;;;5.07;4.57;;;13.90;99.90;;;;;;5057963;28;20561;-65
2022/10/14 08:13:33;;;;;;;6.17;5.13;;;13.90;99.90;;;;;;5058869;28;20901;-64
2022/10/14 08:16:00;;;;;;;4.40;4.00;;;13.90;99.90;;;;;;5058304;28;20463;-64
2022/10/14 08:18:30;;;;;;;4.80;4.30;;;13.80;99.90;;;;;;5056939;28;20917;-65
2022/10/14 08:20:57;;;;;;;4.43;3.93;;;13.80;99.90;;;;;;5056369;28;20519;-64
2022/10/14 08:23:32;;;;;;;4.53;3.80;;;13.90;99.90;;;;;;5057874;28;20500;-65
2022/10/14 08:26:02;;;;;;;4.63;3.60;;;13.90;99.90;;;;;;5059188;28;20754;-65
2022/10/14 08:28:30;;;;;;;5.00;4.53;;;13.90;99.90;;;;;;5053505;28;20895;-65
2022/10/14 08:30:57;;;;;;;4.73;4.33;;;13.80;99.90;;;;;;5059088;28;20443;-66
2022/10/14 08:33:24;;;;;;;5.60;5.10;;;13.80;99.90;;;;;;5058572;28;20875;-66
2022/10/14 08:35:51;;;;;;;6.40;5.80;;;13.90;99.90;;;;;;5059124;28;20469;-65
2022/10/14 08:38:23;;;;;;;4.50;4.10;;;14.00;99.90;;;;;;5058674;28;20454;-65
2022/10/14 08:41:07;;;;;;;4.43;4.03;;;14.00;99.90;;;;;;5058243;28;20450;-66
2022/10/14 08:43:41;;;;;;;4.13;3.73;;;14.10;99.90;;;;;;5058704;28;21005;-65
2022/10/14 08:46:16;;;;;;;5.13;3.87;;;14.20;99.90;;;;;;5058831;28;20440;-65
2022/10/14 08:48:45;;;;;;;4.30;3.90;;;14.20;99.90;;;;;;5058944;28;20466;-63
2022/10/14 08:51:15;;;;;;;4.30;3.90;;;14.30;99.90;;;;;;5057860;28;20466;-65
2022/10/14 08:53:46;;;;;;;3.83;3.53;;;14.20;99.90;;;;;;5057356;28;20462;-65
2022/10/14 08:56:18;;;;;;;5.97;4.33;;;14.20;99.90;;;;;;5058571;28;20481;-65
2022/10/14 08:58:51;;;;;;;4.63;4.17;;;14.30;99.90;;;;;;5059016;28;20429;-65
2022/10/14 09:01:23;;;;;;;4.20;3.80;;;14.40;99.90;;;;;;5058308;28;20469;-65
2022/10/14 09:04:00;;;;;;;4.10;3.70;;;14.50;99.90;;;;;;5058156;28;20494;-65
2022/10/14 09:06:32;;;;;;;3.73;3.43;;;14.50;99.90;;;;;;5057488;28;20441;-65
2022/10/14 09:09:09;;;;;;;3.60;3.30;;;14.60;99.90;;;;;;5057286;28;20441;-63
2022/10/14 09:11:43;;;;;;;3.70;3.40;;;14.70;99.90;;;;;;5057310;28;20462;-64
2022/10/14 09:14:20;;;;;;;4.60;3.97;;;14.70;99.90;;;;;;5057498;28;20461;-64
2022/10/14 09:16:51;;;;;;;3.23;2.93;;;14.90;99.90;;;;;;5057967;28;20457;-64
2022/10/14 09:19:27;;;;;;;3.53;3.23;;;15.00;99.90;;;;;;5056982;28;20470;-63
2022/10/14 09:21:55;;;;;;;3.37;3.00;;;15.10;99.90;;;;;;5058023;28;20806;-64
2022/10/14 09:24:29;;;;;;;3.23;2.90;;;15.00;99.90;;;;;;5057957;28;20501;-63
2022/10/14 09:27:03;;;;;;;6.07;3.37;;;15.00;99.90;;;;;;5057725;28;20443;-63
2022/10/14 09:29:33;;;;;;;3.63;3.30;;;15.00;99.90;;;;;;5057454;28;20469;-63
2022/10/14 09:32:06;;;;;;;3.10;2.70;;;15.20;99.90;;;;;;5057640;28;20433;-63
2022/10/14 09:34:36;;;;;;;4.97;3.40;;;15.30;99.90;;;;;;5057779;28;20477;-64
2022/10/14 09:37:24;;;;;;;3.50;3.10;;;15.40;99.90;;;;;;5058285;28;20488;-63
2022/10/14 09:39:56;;;;;;;4.00;3.70;;;15.30;99.90;;;;;;5057793;28;20865;-63
2022/10/14 09:42:27;;;;;;;4.00;3.70;;;15.30;99.90;;;;;;5057691;28;20468;-63
2022/10/14 09:45:10;;;;;;;3.30;3.00;;;15.30;99.90;;;;;;5057764;28;20499;-64
2022/10/14 09:47:54;;;;;;;3.57;3.27;;;15.40;99.90;;;;;;5057591;28;20462;-63
2022/10/14 09:50:27;;;;;;;4.30;3.60;;;15.50;99.90;;;;;;5057784;28;20447;-64
2022/10/14 09:53:00;;;;;;;3.60;3.30;;;15.50;99.90;;;;;;5057616;28;20454;-64
2022/10/14 09:55:28;;;;;;;6.30;3.73;;;15.60;99.90;;;;;;5057897;28;20470;-63
2022/10/14 09:58:12;;;;;;;3.93;3.10;;;15.60;99.90;;;;;;5056798;28;20465;-64
2022/10/14 10:00:43;;;;;;;3.63;2.80;;;15.60;99.90;;;;;;5057210;28;20443;-63
2022/10/14 10:03:25;;;;;;;3.37;3.07;;;15.60;99.90;;;;;;5056726;28;20491;-64
2022/10/14 10:06:03;;;;;;;4.43;3.03;;;15.60;99.90;;;;;;5057533;28;20472;-64
2022/10/14 10:08:31;;;;;;;4.87;4.03;;;15.50;99.90;;;;;;5057327;28;20466;-64
2022/10/14 10:11:02;;;;;;;4.03;3.63;;;15.40;99.90;;;;;;5056906;28;20469;-64
2022/10/14 10:13:53;;;;;;;4.70;3.47;;;15.30;99.90;;;;;;5056968;28;20741;-63
2022/10/14 10:16:25;;;;;;;3.97;3.10;;;15.30;99.90;;;;;;5056988;28;20462;-64
2022/10/14 10:19:00;;;;;;;3.90;3.60;;;15.30;99.90;;;;;;5056939;28;20472;-64
2022/10/14 10:21:29;;;;;;;4.00;3.60;;;15.40;99.90;;;;;;5056665;28;20439;-63
2022/10/14 10:23:59;;;;;;;3.60;3.30;;;15.40;99.90;;;;;;5057383;28;20586;-64
2022/10/14 10:26:30;;;;;;;4.33;3.70;;;15.50;99.90;;;;;;5057440;28;20937;-64
2022/10/14 10:29:02;;;;;;;4.07;3.67;;;15.60;99.90;;;;;;5057106;28;20473;-64
2022/10/14 10:31:57;;;;;;;4.10;3.20;;;15.70;99.90;;;;;;5057094;28;20462;-64
2022/10/14 10:34:52;;;;;;;4.50;4.10;;;15.80;99.90;;;;;;5057623;28;20440;-66
2022/10/14 10:37:28;;;;;;;5.40;3.77;;;15.90;99.90;;;;;;5056965;28;20762;-65
2022/10/14 10:40:18;;;;;;;6.97;4.37;;;16.00;99.90;;;;;;5057314;28;20556;-66
2022/10/14 10:42:58;;;;;;;9.20;4.70;;;16.00;99.90;;;;;;5058229;28;20498;-65
2022/10/14 10:45:39;;;;;;;6.37;4.93;;;16.10;99.90;;;;;;5056377;28;20436;-66
2022/10/14 10:48:14;;;;;;;6.30;5.70;;;15.90;99.90;;;;;;5057496;28;20470;-65
2022/10/14 10:50:55;;;;;;;8.23;5.60;;;15.90;99.90;;;;;;5057641;28;20507;-66
2022/10/14 10:53:40;;;;;;;7.00;5.50;;;15.90;99.90;;;;;;5057008;28;20436;-65
2022/10/14 10:56:17;;;;;;;7.77;6.77;;;15.90;99.90;;;;;;5057975;28;20469;-65
2022/10/14 10:59:05;;;;;;;9.80;8.80;;;16.00;99.90;;;;;;5057526;28;20521;-65
2022/10/14 11:01:48;;;;;;;9.03;6.70;;;16.00;99.90;;;;;;5058026;28;20466;-65
2022/10/14 11:04:29;;;;;;;8.63;7.73;;;16.10;99.90;;;;;;5057568;28;20468;-65
2022/10/14 11:13:01;;;;;;;9.97;8.97;;;16.20;99.90;;;;;;5057023;28;20442;-65
2022/10/14 11:15:44;;;;;;;8.73;7.80;;;16.40;99.90;;;;;;5055883;28;20490;-65
2022/10/14 11:18:24;;;;;;;8.23;7.40;;;16.50;99.90;;;;;;5057067;28;20433;-65
2022/10/14 11:21:04;;;;;;;10.67;9.10;;;16.40;99.90;;;;;;5055423;28;20458;-64
2022/10/14 11:23:48;;;;;;;10.23;7.73;;;16.50;99.90;;;;;;5055221;28;20791;-65
2022/10/14 11:26:29;;;;;;;7.83;7.07;;;16.50;1.00;;;;;;5055593;28;20468;-65
2022/10/14 11:29:03;;;;;;;8.33;7.30;;;16.50;1.00;;;;;;5055972;28;20476;-63
2022/10/14 11:31:37;;;;;;;13.10;8.90;;;16.40;23.10;;;;;;5058869;28;20440;-63
2022/10/14 11:34:35;;;;;;;10.47;8.40;;;16.30;14.30;;;;;;5060987;28;20540;-63
2022/10/14 11:37:12;;;;;;;9.80;8.50;;;16.10;10.10;;;;;;5059430;28;20432;-63
2022/10/14 11:39:47;;;;;;;9.13;8.20;;;16.00;23.40;;;;;;5059423;28;20748;-63
2022/10/14 11:42:26;;;;;;;10.70;9.20;;;16.00;92.50;;;;;;5060912;28;20748;-63
2022/10/14 11:45:07;;;;;;;9.70;8.70;;;16.00;45.20;;;;;;5061212;28;20944;-63
2022/10/14 11:47:38;;;;;;;11.83;9.00;;;16.10;54.80;;;;;;5060309;28;20507;-63
2022/10/14 11:50:19;;;;;;;10.87;8.80;;;16.10;25.20;;;;;;5060101;28;20473;-63
2022/10/14 11:53:01;;;;;;;10.13;9.03;;;16.10;90.90;;;;;;5059832;28;20466;-63
2022/10/14 11:55:35;;;;;;;9.73;8.63;;;16.00;54.80;;;;;;5059080;28;20466;-63
2022/10/14 11:58:11;;;;;;;12.13;10.20;;;16.10;67.30;;;;;;5059606;28;20436;-64
2022/10/14 12:00:43;;;;;;;11.33;10.13;;;16.00;10.60;;;;;;5060021;28;20470;-64
2022/10/14 12:03:21;;;;;;;12.40;10.67;;;15.90;20.90;;;;;;5040355;28;20568;-64
2022/10/14 12:05:58;;;;;;;14.30;10.20;;;15.90;83.80;;;;;;5040767;28;20463;-64
2022/10/14 12:08:33;;;;;;;12.33;10.20;;;15.90;99.90;;;;;;5040499;28;20902;-64
2022/10/14 12:11:05;;;;;;;13.30;9.80;;;16.00;86.20;;;;;;5040036;28;20462;-64
2022/10/14 12:13:36;;;;;;;14.13;11.70;;;16.00;97.00;;;;;;5040091;28;20455;-64
2022/10/14 12:16:11;;;;;;;11.07;9.83;;;15.80;99.90;;;;;;5040227;28;20465;-64
2022/10/14 12:18:41;;;;;;;14.10;11.10;;;15.70;99.90;;;;;;5039651;28;20480;-64
2022/10/14 12:21:20;;;;;;;11.90;10.03;;;15.70;1.00;;;;;;5039669;28;20880;-64
2022/10/14 12:23:50;;;;;;;13.63;11.67;;;15.60;1.00;;;;;;5039711;28;20468;-63
2022/10/14 12:26:38;;;;;;;12.07;10.47;;;15.50;99.90;;;;;;5040146;28;20819;-65
2022/10/14 12:29:14;;;;;;;13.93;11.03;;;15.40;99.90;;;;;;5038845;28;20502;-65
2022/10/14 12:31:44;;;;;;;12.60;11.30;;;15.20;99.90;;;;;;5038925;28;20462;-64
2022/10/14 12:34:31;;;;;;;12.30;10.63;;;15.20;99.90;;;;;;5039772;28;20470;-64
2022/10/14 12:37:03;;;;;;;11.37;9.83;;;15.10;1.00;;;;;;5039086;28;20540;-63
2022/10/14 12:39:35;;;;;;;11.50;9.30;;;15.20;99.90;;;;;;5038500;28;20469;-64
2022/10/14 12:42:04;;;;;;;9.60;8.70;;;15.10;99.90;;;;;;5039467;28;20753;-63
2022/10/14 12:44:36;;;;;;;9.17;8.17;;;15.20;99.90;;;;;;5038867;28;20495;-65
2022/10/14 12:47:05;;;;;;;9.23;8.17;;;15.20;99.90;;;;;;5038273;28;20508;-66
2022/10/14 12:49:34;;;;;;;10.30;9.30;;;15.40;99.90;;;;;;5038667;28;20445;-66
2022/10/14 12:52:10;;;;;;;10.73;9.67;;;15.50;99.90;;;;;;5038289;28;20539;-65
2022/10/14 12:54:45;;;;;;;10.83;9.80;;;15.70;99.90;;;;;;5038797;28;20470;-66
2022/10/14 12:57:26;;;;;;;9.10;8.20;;;15.90;99.90;;;;;;5038542;28;20950;-66
2022/10/14 12:59:54;;;;;;;9.10;8.30;;;15.90;93.90;;;;;;5038752;28;20434;-65
2022/10/14 13:02:31;;;;;;;10.50;9.50;;;15.80;99.90;;;;;;5038442;28;20477;-65
2022/10/14 13:05:01;;;;;;;10.53;9.53;;;15.80;1.00;;;;;;5038599;28;20476;-66
2022/10/14 13:07:38;;;;;;;9.27;8.37;;;15.60;99.90;;;;;;5038052;28;20438;-65